(°C)
13°
12°
10°
(°C)
Z
Z
Z
Z
ZSZ
ZSZ
ZSZ
(km/h)
18-32
18-33
17-31
16-28
16-30
16-30
16-30
(mm)
0
0
0
0
0
0
0
(%)
9
3
2
1
0
0
0

Podizanje Sunca

/ -17.5°
sun-icon
UV 2
07:18
17:52
Opadajući mesec (201°)
18:44
09:02

METAR za Ivanka pri Dunaji (LZIB)

Vreme Uslovi Temperatura/
Tačka rose
Vetar Vidljivost Prognoza Oblaci Pritisak Promena Neobrađeno
VFR 13°C / 2°C 270º variable 240º to 300º 16kt Gust 26kt >10km - Few Clouds 4000ft 1018 No Significant change LZIB 221700Z 27016G26KT 240V300 9999 FEW040 13/02 Q1018 NOSIG
VFR 13°C / 4°C 270º variable 240º to 300º 11kt >10km - Few Clouds 4000ft 1017 No Significant change LZIB 221630Z 27011KT 240V300 9999 FEW040 13/04 Q1017 NOSIG
VFR 13°C / 5°C 280º 9kt >10km - Few Clouds 4000ft 1017 No Significant change LZIB 221600Z 28009KT 9999 FEW040 13/05 Q1017 NOSIG
VFR 14°C / 6°C 270º 9kt >10km - Few Clouds 4000ft 1017 No Significant change LZIB 221530Z 27009KT 9999 FEW040 14/06 Q1017 NOSIG
VFR 14°C / 6°C 280º 10kt >10km - Few Clouds 3500ft 1016 No Significant change LZIB 221500Z 28010KT 9999 FEW035 14/06 Q1016 NOSIG
VFR 15°C / 6°C 280º 11kt >10km - Few Clouds 3500ft 1017 No Significant change LZIB 221430Z 28011KT 9999 FEW035 15/06 Q1017 NOSIG
VFR 14°C / 7°C 270º 13kt >10km - Few Clouds 3500ft 1017 No Significant change LZIB 221400Z 27013KT 9999 FEW035 14/07 Q1017 NOSIG
VFR 15°C / 7°C 290º 11kt >10km - Few Clouds 3600ft
Scattered Clouds 4500ft
1017 No Significant change LZIB 221330Z 29011KT 9999 FEW036 SCT045 15/07 Q1017 NOSIG
VFR 15°C / 7°C 280º 11kt >10km - Few Clouds 3800ft 1017 No Significant change LZIB 221300Z 28011KT 9999 FEW038 15/07 Q1017 NOSIG
VFR 15°C / 7°C 280º 10kt >10km - Few Clouds 4000ft 1017 No Significant change LZIB 221230Z 28010KT 9999 FEW040 15/07 Q1017 NOSIG
VFR 16°C / 7°C 290º variable 250º to 320º 10kt >10km - Few Clouds 4000ft 1017 No Significant change LZIB 221200Z 29010KT 250V320 9999 FEW040 16/07 Q1017 NOSIG
VFR 15°C / 6°C 280º 14kt >10km - Few Clouds 4000ft 1017 No Significant change LZIB 221130Z 28014KT 9999 FEW040 15/06 Q1017 NOSIG
VFR 15°C / 6°C 280º 12kt >10km Light Rain 1.00mm precipitation Vertical Visibility of 0ft. 1017 No Significant change LZIB 221100Z 28012KT 9999 -RA FEW038 15/06 Q1017 NOSIG
VFR 15°C / 6°C 270º 14kt >10km - Few Clouds 3800ft 1017 No Significant change LZIB 221030Z 27014KT 9999 FEW038 15/06 Q1017 NOSIG
VFR 16°C / 7°C 290º variable 260º to 320º 12kt >10km - Few Clouds 3800ft 1017 No Significant change LZIB 221000Z 29012KT 260V320 9999 FEW038 16/07 Q1017 NOSIG
VFR 15°C / 6°C 280º 10kt >10km - Few Clouds 3600ft 1017 No Significant change LZIB 220930Z 28010KT 9999 FEW036 15/06 Q1017 NOSIG
VFR 14°C / 6°C 280º variable 260º to 320º 10kt >10km - Few Clouds 3500ft 1017 No Significant change LZIB 220900Z 28010KT 260V320 9999 FEW035 14/06 Q1017 NOSIG
VFR 14°C / 6°C 270º 10kt >10km - Few Clouds 3400ft 1017 No Significant change LZIB 220830Z 27010KT 9999 FEW034 14/06 Q1017 NOSIG
VFR 14°C / 6°C 250º variable 230º to 290º 9kt >10km - Few Clouds 3400ft 1017 No Significant change LZIB 220800Z 25009KT 230V290 9999 FEW034 14/06 Q1017 NOSIG
VFR 13°C / 6°C 220º 8kt >10km - Few Clouds 4600ft 1017 No Significant change LZIB 220730Z 22008KT 9999 FEW046 13/06 Q1017 NOSIG
VFR 12°C / 6°C 220º 8kt >10km - Scattered Clouds 4200ft 1016 No Significant change LZIB 220700Z 22008KT 9999 SCT042 12/06 Q1016 NOSIG
VFR 13°C / 5°C 260º 10kt >10km - Scattered Clouds 4800ft 1016 No Significant change LZIB 220630Z 26010KT 9999 SCT048 13/05 Q1016 NOSIG
VFR 13°C / 5°C 270º 10kt >10km - Few Clouds 4800ft 1015 No Significant change LZIB 220600Z 27010KT 9999 FEW048 13/05 Q1015 NOSIG
VFR 13°C / 5°C 270º 12kt >10km - Scattered Clouds 4800ft 1015 No Significant change LZIB 220530Z 27012KT 9999 SCT048 13/05 Q1015 NOSIG

VFR

13°C / 2°C

[Više]
Vetar 270º variable 240º to 300º 16kt Gust 26kt
Vidljivost >10km
Prognoza -
Oblaci Few Clouds 4000ft
Pritisak 1018
Promena No Significant change
Neobrađeno LZIB 221700Z 27016G26KT 240V300 9999 FEW040 13/02 Q1018 NOSIG

VFR

13°C / 4°C

[Više]
Vetar 270º variable 240º to 300º 11kt
Vidljivost >10km
Prognoza -
Oblaci Few Clouds 4000ft
Pritisak 1017
Promena No Significant change
Neobrađeno LZIB 221630Z 27011KT 240V300 9999 FEW040 13/04 Q1017 NOSIG

VFR

13°C / 5°C

[Više]
Vetar 280º 9kt
Vidljivost >10km
Prognoza -
Oblaci Few Clouds 4000ft
Pritisak 1017
Promena No Significant change
Neobrađeno LZIB 221600Z 28009KT 9999 FEW040 13/05 Q1017 NOSIG

VFR

14°C / 6°C

[Više]
Vetar 270º 9kt
Vidljivost >10km
Prognoza -
Oblaci Few Clouds 4000ft
Pritisak 1017
Promena No Significant change
Neobrađeno LZIB 221530Z 27009KT 9999 FEW040 14/06 Q1017 NOSIG

VFR

14°C / 6°C

[Više]
Vetar 280º 10kt
Vidljivost >10km
Prognoza -
Oblaci Few Clouds 3500ft
Pritisak 1016
Promena No Significant change
Neobrađeno LZIB 221500Z 28010KT 9999 FEW035 14/06 Q1016 NOSIG

VFR

15°C / 6°C

[Više]
Vetar 280º 11kt
Vidljivost >10km
Prognoza -
Oblaci Few Clouds 3500ft
Pritisak 1017
Promena No Significant change
Neobrađeno LZIB 221430Z 28011KT 9999 FEW035 15/06 Q1017 NOSIG

VFR

14°C / 7°C

[Više]
Vetar 270º 13kt
Vidljivost >10km
Prognoza -
Oblaci Few Clouds 3500ft
Pritisak 1017
Promena No Significant change
Neobrađeno LZIB 221400Z 27013KT 9999 FEW035 14/07 Q1017 NOSIG

VFR

15°C / 7°C

[Više]
Vetar 290º 11kt
Vidljivost >10km
Prognoza -
Oblaci Few Clouds 3600ft
Scattered Clouds 4500ft
Pritisak 1017
Promena No Significant change
Neobrađeno LZIB 221330Z 29011KT 9999 FEW036 SCT045 15/07 Q1017 NOSIG

VFR

15°C / 7°C

[Više]
Vetar 280º 11kt
Vidljivost >10km
Prognoza -
Oblaci Few Clouds 3800ft
Pritisak 1017
Promena No Significant change
Neobrađeno LZIB 221300Z 28011KT 9999 FEW038 15/07 Q1017 NOSIG

VFR

15°C / 7°C

[Više]
Vetar 280º 10kt
Vidljivost >10km
Prognoza -
Oblaci Few Clouds 4000ft
Pritisak 1017
Promena No Significant change
Neobrađeno LZIB 221230Z 28010KT 9999 FEW040 15/07 Q1017 NOSIG

VFR

16°C / 7°C

[Više]
Vetar 290º variable 250º to 320º 10kt
Vidljivost >10km
Prognoza -
Oblaci Few Clouds 4000ft
Pritisak 1017
Promena No Significant change
Neobrađeno LZIB 221200Z 29010KT 250V320 9999 FEW040 16/07 Q1017 NOSIG

VFR

15°C / 6°C

[Više]
Vetar 280º 14kt
Vidljivost >10km
Prognoza -
Oblaci Few Clouds 4000ft
Pritisak 1017
Promena No Significant change
Neobrađeno LZIB 221130Z 28014KT 9999 FEW040 15/06 Q1017 NOSIG

VFR

15°C / 6°C

[Više]
Vetar 280º 12kt
Vidljivost >10km
Prognoza Light Rain 1.00mm precipitation
Oblaci Vertical Visibility of 0ft.
Pritisak 1017
Promena No Significant change
Neobrađeno LZIB 221100Z 28012KT 9999 -RA FEW038 15/06 Q1017 NOSIG

VFR

15°C / 6°C

[Više]
Vetar 270º 14kt
Vidljivost >10km
Prognoza -
Oblaci Few Clouds 3800ft
Pritisak 1017
Promena No Significant change
Neobrađeno LZIB 221030Z 27014KT 9999 FEW038 15/06 Q1017 NOSIG

VFR

16°C / 7°C

[Više]
Vetar 290º variable 260º to 320º 12kt
Vidljivost >10km
Prognoza -
Oblaci Few Clouds 3800ft
Pritisak 1017
Promena No Significant change
Neobrađeno LZIB 221000Z 29012KT 260V320 9999 FEW038 16/07 Q1017 NOSIG

VFR

15°C / 6°C

[Više]
Vetar 280º 10kt
Vidljivost >10km
Prognoza -
Oblaci Few Clouds 3600ft
Pritisak 1017
Promena No Significant change
Neobrađeno LZIB 220930Z 28010KT 9999 FEW036 15/06 Q1017 NOSIG

VFR

14°C / 6°C

[Više]
Vetar 280º variable 260º to 320º 10kt
Vidljivost >10km
Prognoza -
Oblaci Few Clouds 3500ft
Pritisak 1017
Promena No Significant change
Neobrađeno LZIB 220900Z 28010KT 260V320 9999 FEW035 14/06 Q1017 NOSIG

VFR

14°C / 6°C

[Više]
Vetar 270º 10kt
Vidljivost >10km
Prognoza -
Oblaci Few Clouds 3400ft
Pritisak 1017
Promena No Significant change
Neobrađeno LZIB 220830Z 27010KT 9999 FEW034 14/06 Q1017 NOSIG

VFR

14°C / 6°C

[Više]
Vetar 250º variable 230º to 290º 9kt
Vidljivost >10km
Prognoza -
Oblaci Few Clouds 3400ft
Pritisak 1017
Promena No Significant change
Neobrađeno LZIB 220800Z 25009KT 230V290 9999 FEW034 14/06 Q1017 NOSIG

VFR

13°C / 6°C

[Više]
Vetar 220º 8kt
Vidljivost >10km
Prognoza -
Oblaci Few Clouds 4600ft
Pritisak 1017
Promena No Significant change
Neobrađeno LZIB 220730Z 22008KT 9999 FEW046 13/06 Q1017 NOSIG

VFR

12°C / 6°C

[Više]
Vetar 220º 8kt
Vidljivost >10km
Prognoza -
Oblaci Scattered Clouds 4200ft
Pritisak 1016
Promena No Significant change
Neobrađeno LZIB 220700Z 22008KT 9999 SCT042 12/06 Q1016 NOSIG

VFR

13°C / 5°C

[Više]
Vetar 260º 10kt
Vidljivost >10km
Prognoza -
Oblaci Scattered Clouds 4800ft
Pritisak 1016
Promena No Significant change
Neobrađeno LZIB 220630Z 26010KT 9999 SCT048 13/05 Q1016 NOSIG

VFR

13°C / 5°C

[Više]
Vetar 270º 10kt
Vidljivost >10km
Prognoza -
Oblaci Few Clouds 4800ft
Pritisak 1015
Promena No Significant change
Neobrađeno LZIB 220600Z 27010KT 9999 FEW048 13/05 Q1015 NOSIG

VFR

13°C / 5°C

[Više]
Vetar 270º 12kt
Vidljivost >10km
Prognoza -
Oblaci Scattered Clouds 4800ft
Pritisak 1015
Promena No Significant change
Neobrađeno LZIB 220530Z 27012KT 9999 SCT048 13/05 Q1015 NOSIG

TAF za Ivanka pri Dunaji (LZIB)

From till


From till Wind 310º 9kt. Visibility 10km or more. Few Clouds 4000ft.
Becoming from till Wind 310º 9kt. Visibility 10km or more. Broken Clouds 2500ft.
Becoming from till Wind 310º 9kt. Visibility 10km or more. Nil Significant Cloud.

Neobrađeno: TAF LZIB 221700Z 2218/2318 31009KT 9999 FEW040 BECMG 2302/2304 BKN025 BECMG 2312/2314 CAVOK

Trenutni satelitski snimci i slike kiše za Ivanka pri Dunaji, Словачка

Marker lokacije postavljen je na Ivanka pri Dunaji. [Više]

Satelitski snimci u realnom vremenu kombinuju vidljivu svetlost tokom dana sa infracrvenim zračenjem tokom noći. Noću slika nije tamna jer infracrveno zračenje može otkriti temperaturne razlike. Nažalost, niski oblaci i magla teško se mogu razlikovati od temperature zemlje tako da mogu biti skoro nevidljivi tokom noći. Meteosat satelitski snimci za Evropu se ažuriraju u realnom vremenu na svakih 5 minuta. Slnimci GOES-16/GOES-17 (Severna i Južna Amerika) and Himawari (Azia) ažuriraju se na svakih 10 minuta.

Padavine su procenjene na osnovu radara i satelita. U noćnim uslovima satelitske procene padavina su manje precizne od dnevnih. Narandžasti preseci obeležavaju mesta gde je munja otkrivena (preko Evropa).

Autorsko pravo 2021 EUMETSAT / meteoblue. Podaci za munje obezbeđeni od nowcast.

Radar i padavine kratka prognoza za Ivanka pri Dunaji

Rominjati
Svjetlo
Umjereno
Teška
Vrlo teško
Zdravo

Marker lokacije postavljen je na Ivanka pri Dunaji. Ova animacija prikazuje radar padavina za poslednji sat, kao i 1h prognozu. Пљусак кише или слаб снег може бити невидљив за радар. Интензитет падавина је кодиран у боји, у распону од светло плаве до наранџасте.